createdAt,value
2019-04-12T00:02:47.186Z,64.50
2019-04-12T00:06:56.002Z,64.40
2019-04-12T00:11:05.061Z,64.60
2019-04-12T00:15:14.306Z,64.60
2019-04-12T00:19:23.445Z,65.00
2019-04-12T00:23:32.259Z,65.10
2019-04-12T00:27:41.062Z,65.40
2019-04-12T00:31:51.415Z,65.60
2019-04-12T00:36:01.149Z,65.90
2019-04-12T00:40:10.345Z,66.30
2019-04-12T00:44:19.245Z,66.30
2019-04-12T00:48:28.457Z,66.40
2019-04-12T00:52:37.791Z,66.60
2019-04-12T00:56:47.569Z,66.50
2019-04-12T01:01:08.943Z,66.60
2019-04-12T01:05:26.399Z,66.60
2019-04-12T01:09:35.290Z,66.80
2019-04-12T01:13:44.207Z,67.00
2019-04-12T01:17:53.318Z,67.20
2019-04-12T01:22:07.957Z,67.30
2019-04-12T01:26:15.380Z,67.50
2019-04-12T01:30:25.323Z,67.60
2019-04-12T01:34:34.471Z,68.00
2019-04-12T01:38:43.370Z,67.70
2019-04-12T01:42:52.967Z,67.70
2019-04-12T01:47:01.773Z,68.00
2019-04-12T01:51:10.674Z,68.00
2019-04-12T01:55:20.183Z,67.90
2019-04-12T01:59:28.990Z,68.80
2019-04-12T02:03:38.454Z,68.00
2019-04-12T02:07:47.733Z,67.90
2019-04-12T02:11:56.978Z,67.90
2019-04-12T02:16:06.212Z,68.00
2019-04-12T02:20:15.265Z,68.20
2019-04-12T02:24:24.442Z,68.10
2019-04-12T02:28:51.630Z,68.00
2019-04-12T02:33:02.167Z,68.00
2019-04-12T02:37:11.573Z,67.90
2019-04-12T02:41:21.462Z,67.80
2019-04-12T02:45:32.755Z,67.30
2019-04-12T02:49:51.302Z,67.50
2019-04-12T02:54:24.906Z,67.60
2019-04-12T02:58:46.451Z,68.60
2019-04-12T03:02:55.825Z,67.60
2019-04-12T03:07:04.788Z,67.20
2019-04-12T03:11:14.574Z,67.10
2019-04-12T03:15:23.534Z,67.10
2019-04-12T03:19:32.886Z,67.40
2019-04-12T03:23:41.863Z,67.50
2019-04-12T03:27:51.531Z,67.40
2019-04-12T03:32:01.183Z,67.50
2019-04-12T03:36:10.240Z,67.30
2019-04-12T03:40:19.314Z,67.10
2019-04-12T03:44:28.597Z,67.40
2019-04-12T03:48:37.507Z,67.30
2019-04-12T03:52:46.673Z,67.20
2019-04-12T03:56:55.887Z,67.10
2019-04-12T04:01:04.875Z,67.00
2019-04-12T04:05:13.783Z,66.90
2019-04-12T04:09:22.867Z,66.90
2019-04-12T04:13:32.397Z,66.90
2019-04-12T04:18:00.630Z,67.20
2019-04-12T04:22:10.222Z,67.50
2019-04-12T04:26:42.285Z,67.60
2019-04-12T04:30:57.066Z,67.80
2019-04-12T04:35:06.594Z,68.00
2019-04-12T04:39:16.531Z,68.00
2019-04-12T04:43:25.934Z,67.70
2019-04-12T04:47:35.089Z,67.60
2019-04-12T04:51:44.038Z,67.60
2019-04-12T04:55:53.156Z,68.10
2019-04-12T05:00:02.320Z,68.10
2019-04-12T05:04:11.952Z,67.70
2019-04-12T05:08:21.005Z,67.60
2019-04-12T05:12:29.966Z,68.00
2019-04-12T05:16:39.135Z,68.20
2019-04-12T05:20:48.518Z,68.20
2019-04-12T05:24:57.553Z,67.80
2019-04-12T05:29:07.045Z,67.70
2019-04-12T05:33:16.693Z,67.40
2019-04-12T05:37:26.325Z,67.40
2019-04-12T05:41:35.279Z,67.30
2019-04-12T05:45:50.405Z,66.90
2019-04-12T05:50:07.749Z,66.70
2019-04-12T05:54:16.716Z,66.30
2019-04-12T05:58:44.338Z,66.20
2019-04-12T06:02:56.818Z,66.20
2019-04-12T06:07:04.630Z,66.00
2019-04-12T06:11:13.724Z,66.60
2019-04-12T06:15:23.318Z,65.50
2019-04-12T06:19:34.318Z,65.30
2019-04-12T06:23:43.310Z,64.80
2019-04-12T06:27:54.182Z,64.40
2019-04-12T06:32:03.346Z,63.70
2019-04-12T06:36:12.578Z,63.00
2019-04-12T06:40:21.518Z,62.20
2019-04-12T06:44:30.514Z,61.30
2019-04-12T06:48:39.853Z,60.50
2019-04-12T06:52:49.135Z,60.00
2019-04-12T06:57:04.731Z,59.70
2019-04-12T07:01:18.545Z,59.10
2019-04-12T07:05:27.659Z,58.50
2019-04-12T07:09:36.462Z,56.70
2019-04-12T07:13:45.418Z,55.60
2019-04-12T07:17:54.836Z,55.20
2019-04-12T07:22:04.070Z,54.50
2019-04-12T07:26:13.514Z,54.20
2019-04-12T07:30:22.458Z,53.00
2019-04-12T07:34:31.678Z,52.00
2019-04-12T07:38:40.876Z,50.70
2019-04-12T07:42:49.702Z,49.30
2019-04-12T07:46:58.822Z,49.70
2019-04-12T07:51:38.930Z,48.70
2019-04-12T07:56:07.774Z,49.20
2019-04-12T08:00:29.018Z,48.60
2019-04-12T08:05:02.827Z,47.70
2019-04-12T08:09:12.215Z,47.50
2019-04-12T08:13:21.099Z,47.20
2019-04-12T08:17:29.905Z,46.60
2019-04-12T08:21:39.430Z,46.70
2019-04-12T08:25:48.446Z,46.90
2019-04-12T08:29:57.551Z,47.10
2019-04-12T08:34:06.371Z,46.80
2019-04-12T08:38:15.259Z,45.90
2019-04-12T08:42:24.062Z,44.70
2019-04-12T08:46:32.966Z,45.00
2019-04-12T08:50:41.968Z,44.00
2019-04-12T08:54:50.897Z,43.60
2019-04-12T08:58:59.714Z,43.50
2019-04-12T09:03:08.889Z,43.40
2019-04-12T09:07:18.208Z,42.90
2019-04-12T09:11:27.280Z,43.20
2019-04-12T09:15:36.520Z,41.70
2019-04-12T09:20:16.953Z,42.50
2019-04-12T09:24:30.178Z,43.00
2019-04-12T09:28:39.604Z,42.20
2019-04-12T09:32:48.502Z,42.10
2019-04-12T09:36:57.467Z,41.20
2019-04-12T09:41:06.470Z,41.00
2019-04-12T09:45:15.470Z,40.60
2019-04-12T09:49:24.302Z,39.90
2019-04-12T09:53:33.405Z,39.70
2019-04-12T09:57:43.142Z,40.10
2019-04-12T10:01:51.960Z,39.50
2019-04-12T10:06:01.145Z,39.70
2019-04-12T10:10:10.098Z,40.30
2019-04-12T10:14:18.898Z,40.30
2019-04-12T10:18:27.733Z,40.60
2019-04-12T10:22:36.545Z,41.00
2019-04-12T10:26:45.535Z,40.60
2019-04-12T10:30:54.839Z,40.20
2019-04-12T10:35:03.916Z,40.00
2019-04-12T10:39:31.882Z,39.30
2019-04-12T10:43:41.085Z,38.60
2019-04-12T10:47:57.313Z,38.60
2019-04-12T10:52:21.043Z,38.40
2019-04-12T10:56:29.948Z,38.60
2019-04-12T11:00:42.041Z,38.40
2019-04-12T11:04:51.068Z,37.90
2019-04-12T11:09:00.035Z,37.60
2019-04-12T11:13:09.250Z,38.20
2019-04-12T11:17:18.848Z,36.40
2019-04-12T11:21:27.810Z,36.70
2019-04-12T11:25:36.658Z,37.10
2019-04-12T11:29:45.534Z,38.00
2019-04-12T11:33:54.635Z,38.40
2019-04-12T11:38:03.550Z,37.20
2019-04-12T11:42:12.658Z,37.90
2019-04-12T11:46:21.470Z,37.40
2019-04-12T11:50:30.267Z,37.60
2019-04-12T11:54:39.117Z,37.00
2019-04-12T11:58:48.598Z,36.80
2019-04-12T12:03:06.117Z,37.50
2019-04-12T12:07:49.535Z,38.30
2019-04-12T12:11:57.034Z,38.20
2019-04-12T12:16:17.351Z,37.00
2019-04-12T12:20:26.221Z,37.40
2019-04-12T12:24:35.026Z,37.60
2019-04-12T12:28:43.845Z,38.10
2019-04-12T12:32:52.633Z,36.80
2019-04-12T12:37:01.494Z,36.60
2019-04-12T12:41:10.451Z,37.00
2019-04-12T12:45:19.929Z,36.90
2019-04-12T12:49:28.793Z,36.50
2019-04-12T12:53:37.959Z,36.90
2019-04-12T12:57:46.820Z,37.90
2019-04-12T13:01:56.138Z,38.00
2019-04-12T13:06:05.083Z,38.70
2019-04-12T13:10:13.985Z,38.60
2019-04-12T13:14:22.913Z,38.30
2019-04-12T13:18:32.191Z,37.90
2019-04-12T13:22:41.318Z,38.00
2019-04-12T13:26:50.155Z,38.10
2019-04-12T13:31:33.443Z,38.60
2019-04-12T13:35:55.146Z,38.40
2019-04-12T13:40:09.490Z,38.80
2019-04-12T13:44:18.643Z,39.10
2019-04-12T13:48:28.132Z,39.40
2019-04-12T13:52:37.014Z,38.50
2019-04-12T13:56:46.046Z,38.80
2019-04-12T14:00:55.511Z,38.90
2019-04-12T14:05:05.002Z,39.20
2019-04-12T14:09:14.157Z,38.30
2019-04-12T14:13:23.430Z,37.40
2019-04-12T14:17:32.714Z,37.80
2019-04-12T14:21:41.622Z,37.60
2019-04-12T14:25:50.581Z,38.60
2019-04-12T14:29:59.521Z,39.50
2019-04-12T14:34:14.090Z,38.40
2019-04-12T14:38:23.286Z,39.00
2019-04-12T14:42:32.321Z,38.90
2019-04-12T14:46:45.852Z,39.60
2019-04-12T14:50:54.715Z,40.30
2019-04-12T14:55:03.900Z,41.10
2019-04-12T14:59:12.889Z,41.30
2019-04-12T15:03:21.718Z,40.90
2019-04-12T15:07:30.614Z,41.00
2019-04-12T15:11:39.496Z,40.60
2019-04-12T15:15:48.538Z,38.10
2019-04-12T15:19:57.355Z,36.60
2019-04-12T15:24:06.229Z,35.20
2019-04-12T15:28:15.834Z,35.80
2019-04-12T15:32:24.638Z,36.50
2019-04-12T15:36:33.553Z,37.60
2019-04-12T15:40:43.042Z,37.80
2019-04-12T15:44:52.179Z,38.10
2019-04-12T15:49:01.426Z,37.90
2019-04-12T15:53:10.349Z,39.00
2019-04-12T15:57:19.660Z,39.50
2019-04-12T16:01:28.709Z,39.20
2019-04-12T16:05:37.669Z,39.10
2019-04-12T16:09:50.016Z,39.30
2019-04-12T16:14:13.645Z,39.00
2019-04-12T16:18:22.557Z,39.90
2019-04-12T16:22:31.450Z,40.60
2019-04-12T16:26:42.010Z,41.30
2019-04-12T16:31:22.977Z,42.20
2019-04-12T16:35:29.539Z,43.20
2019-04-12T16:39:38.437Z,44.00
2019-04-12T16:43:47.245Z,44.50
2019-04-12T16:47:56.378Z,45.30
2019-04-12T16:52:05.380Z,45.00
2019-04-12T16:56:14.489Z,45.10
2019-04-12T17:00:36.632Z,45.10
2019-04-12T17:04:46.332Z,45.00
2019-04-12T17:08:55.563Z,45.00
2019-04-12T17:13:04.686Z,44.00
2019-04-12T17:17:13.582Z,43.60
2019-04-12T17:21:22.804Z,44.10
2019-04-12T17:25:32.065Z,44.20
2019-04-12T17:29:41.286Z,45.00
2019-04-12T17:33:50.735Z,45.60
2019-04-12T17:38:00.177Z,46.10
2019-04-12T17:42:09.152Z,46.60
2019-04-12T17:46:18.264Z,46.90
2019-04-12T17:50:44.206Z,47.30
2019-04-12T17:55:00.866Z,47.80
2019-04-12T17:59:10.055Z,48.00
2019-04-12T18:03:19.664Z,48.20
2019-04-12T18:07:30.179Z,48.60
2019-04-12T18:11:42.334Z,49.00
2019-04-12T18:15:51.831Z,49.40
2019-04-12T18:20:01.069Z,49.30
2019-04-12T18:24:10.354Z,49.40
2019-04-12T18:28:19.261Z,49.90
2019-04-12T18:32:28.393Z,50.60
2019-04-12T18:36:37.526Z,51.00
2019-04-12T18:40:46.530Z,51.40
2019-04-12T18:44:55.413Z,51.70
2019-04-12T18:49:04.308Z,51.90
2019-04-12T18:53:13.214Z,52.10
2019-04-12T18:57:22.183Z,52.40
2019-04-12T19:01:31.087Z,52.90
2019-04-12T19:05:40.062Z,53.00
2019-04-12T19:09:48.934Z,53.30
2019-04-12T19:13:57.904Z,53.50
2019-04-12T19:18:07.354Z,53.70
2019-04-12T19:22:16.718Z,53.40
2019-04-12T19:26:25.674Z,53.50
2019-04-12T19:30:39.045Z,53.40
2019-04-12T19:34:59.287Z,53.60
2019-04-12T19:39:27.098Z,54.00
2019-04-12T19:43:35.997Z,54.20
2019-04-12T19:47:44.793Z,54.50
2019-04-12T19:51:54.004Z,55.00
2019-04-12T19:56:02.809Z,55.40
2019-04-12T20:00:12.134Z,55.30
2019-04-12T20:04:21.011Z,54.60
2019-04-12T20:08:29.889Z,54.30
2019-04-12T20:12:38.807Z,54.40
2019-04-12T20:16:47.655Z,54.50
2019-04-12T20:20:56.588Z,54.70
2019-04-12T20:25:06.417Z,55.10
2019-04-12T20:29:15.293Z,55.00
2019-04-12T20:33:24.211Z,55.00
2019-04-12T20:37:33.247Z,55.20
2019-04-12T20:41:43.815Z,55.40
2019-04-12T20:45:55.209Z,55.50
2019-04-12T20:50:03.601Z,55.90
2019-04-12T20:54:12.724Z,56.20
2019-04-12T20:58:21.534Z,56.00
2019-04-12T21:02:38.810Z,55.90
2019-04-12T21:06:41.434Z,55.70
2019-04-12T21:10:50.250Z,55.80
2019-04-12T21:14:59.538Z,55.90
2019-04-12T21:19:08.413Z,55.90
2019-04-12T21:23:17.293Z,56.20
2019-04-12T21:27:26.752Z,56.00
2019-04-12T21:31:35.837Z,56.00
2019-04-12T21:35:45.341Z,56.10
2019-04-12T21:39:54.186Z,56.10
2019-04-12T21:44:11.245Z,56.10
2019-04-12T21:48:14.813Z,56.20
2019-04-12T21:52:23.677Z,56.50
2019-04-12T21:56:32.817Z,56.40
2019-04-12T22:00:54.141Z,56.60
2019-04-12T22:05:03.627Z,56.70
2019-04-12T22:09:12.680Z,56.80
2019-04-12T22:13:21.867Z,57.00
2019-04-12T22:17:30.720Z,57.10
2019-04-12T22:21:39.503Z,57.90
2019-04-12T22:25:48.383Z,57.70
2019-04-12T22:29:57.197Z,58.20
2019-04-12T22:34:06.001Z,58.20
2019-04-12T22:38:14.897Z,58.60
2019-04-12T22:42:23.823Z,58.40
2019-04-12T22:46:32.773Z,58.30
2019-04-12T22:50:42.067Z,58.50
2019-04-12T22:54:50.950Z,58.70
2019-04-12T22:59:00.234Z,58.80
2019-04-12T23:03:09.028Z,58.80
2019-04-12T23:07:18.270Z,59.00
2019-04-12T23:11:27.508Z,59.20
2019-04-12T23:15:36.384Z,59.30
2019-04-12T23:19:45.207Z,59.40
2019-04-12T23:23:54.009Z,59.50
2019-04-12T23:28:02.805Z,59.80
2019-04-12T23:32:12.589Z,59.90
2019-04-12T23:36:21.449Z,60.10
2019-04-12T23:40:30.725Z,60.30
2019-04-12T23:44:39.661Z,60.50
2019-04-12T23:48:48.801Z,60.70
2019-04-12T23:52:57.697Z,60.80
2019-04-12T23:57:06.536Z,61.40
